Time;durP1;ratioP1;P1;durP2;ratioP2;P2;SDS_P1;SDS_P2;PMS_P1;PMS_P2;Temp;Humidity;BMP_temperature;BMP_pressure;BME280_temperature;BME280_humidity;BME280_pressure;Samples;Min_cycle;Max_cycle;Signal;HPM_P1;HPM_P2
2023/10/08 00:01:43;;;;;;;4.57;3.67;;;19.20;68.40;;;;;;5002229;28;20440;-50
2023/10/08 00:04:11;;;;;;;4.83;3.33;;;19.20;68.50;;;;;;5005692;28;20488;-52
2023/10/08 00:06:40;;;;;;;4.00;2.97;;;19.20;68.40;;;;;;5008594;28;20472;-48
2023/10/08 00:09:08;;;;;;;3.40;3.10;;;19.20;68.40;;;;;;5010556;28;20468;-51
2023/10/08 00:11:37;;;;;;;3.80;2.63;;;19.20;68.30;;;;;;5011147;28;20437;-52
2023/10/08 00:14:09;;;;;;;4.23;2.90;;;19.20;68.40;;;;;;5010139;28;20842;-50
2023/10/08 00:16:40;;;;;;;3.07;2.43;;;19.20;68.30;;;;;;5004643;28;20444;-51
2023/10/08 00:19:11;;;;;;;4.20;2.77;;;19.20;68.50;;;;;;5008203;28;20818;-51
2023/10/08 00:21:44;;;;;;;4.23;3.10;;;19.20;68.50;;;;;;5006956;28;20528;-52
2023/10/08 00:24:13;;;;;;;4.33;3.50;;;19.20;68.40;;;;;;5011332;28;20476;-51
2023/10/08 00:26:42;;;;;;;4.47;3.00;;;19.20;68.40;;;;;;5009733;28;20444;-50
2023/10/08 00:29:17;;;;;;;5.33;3.47;;;19.20;68.40;;;;;;5007357;28;20476;-51
2023/10/08 00:31:49;;;;;;;4.23;3.13;;;19.20;68.40;;;;;;5009804;28;20527;-50
2023/10/08 00:34:19;;;;;;;3.90;2.87;;;19.20;68.20;;;;;;5009355;28;20464;-51
2023/10/08 00:36:49;;;;;;;3.20;2.90;;;19.20;68.30;;;;;;5005475;28;20440;-50
2023/10/08 00:39:22;;;;;;;3.30;2.97;;;19.20;68.20;;;;;;5000453;28;20841;-50
2023/10/08 00:41:57;;;;;;;4.43;2.93;;;19.20;68.20;;;;;;5010094;28;20504;-51
2023/10/08 00:44:29;;;;;;;3.27;2.70;;;19.20;68.20;;;;;;5007293;28;21099;-53
2023/10/08 00:47:01;;;;;;;4.43;3.30;;;19.20;68.10;;;;;;5009168;28;20543;-51
2023/10/08 00:52:40;;;;;;;4.40;2.87;;;19.20;68.10;;;;;;5004704;28;20495;-50
2023/10/08 00:55:14;;;;;;;3.90;2.60;;;19.20;68.00;;;;;;5008614;28;20460;-52
2023/10/08 00:57:47;;;;;;;4.80;3.60;;;19.20;67.90;;;;;;5013365;28;20443;-51
2023/10/08 01:00:21;;;;;;;5.00;2.90;;;19.20;68.10;;;;;;5006266;28;20469;-50
2023/10/08 01:03:00;;;;;;;4.70;3.30;;;19.20;68.00;;;;;;5006800;28;21265;-51
2023/10/08 01:05:42;;;;;;;3.93;2.70;;;19.20;67.90;;;;;;5008656;28;20472;-50
2023/10/08 01:08:14;;;;;;;4.87;3.00;;;19.20;67.90;;;;;;4997558;28;20567;-51
2023/10/08 01:10:46;;;;;;;4.50;3.13;;;19.20;68.00;;;;;;5013093;28;20475;-52
2023/10/08 01:13:19;;;;;;;3.50;3.10;;;19.20;68.00;;;;;;5007213;28;20447;-52
2023/10/08 01:15:50;;;;;;;3.63;3.00;;;19.20;68.00;;;;;;5006564;28;20511;-51
2023/10/08 01:18:29;;;;;;;8.33;4.07;;;19.20;67.90;;;;;;5007857;28;20425;-52
2023/10/08 01:21:04;;;;;;;3.73;3.00;;;19.20;67.70;;;;;;5004092;28;20464;-49
2023/10/08 01:23:33;;;;;;;3.87;2.63;;;19.20;67.70;;;;;;5013905;28;20464;-51
2023/10/08 01:26:10;;;;;;;6.50;2.90;;;19.20;67.70;;;;;;5015536;28;20468;-50
2023/10/08 01:28:39;;;;;;;3.97;2.90;;;19.20;67.60;;;;;;5007390;28;20527;-52
2023/10/08 01:31:12;;;;;;;5.07;3.90;;;19.20;67.60;;;;;;5009648;28;20441;-51
2023/10/08 01:33:50;;;;;;;5.27;3.60;;;19.20;67.70;;;;;;5008844;28;20974;-51
2023/10/08 01:36:18;;;;;;;4.30;3.00;;;19.20;67.60;;;;;;5004615;28;20804;-51
2023/10/08 01:38:49;;;;;;;3.77;3.13;;;19.20;67.80;;;;;;5009378;28;20424;-51
2023/10/08 01:41:29;;;;;;;4.87;2.87;;;19.20;67.40;;;;;;5010986;28;20460;-50
2023/10/08 01:43:59;;;;;;;4.90;3.27;;;19.20;67.60;;;;;;5006366;28;20456;-50
2023/10/08 01:46:32;;;;;;;5.00;3.57;;;19.20;67.50;;;;;;5005260;28;20453;-52
2023/10/08 01:49:04;;;;;;;3.30;2.90;;;19.20;67.30;;;;;;5012094;28;20453;-51
2023/10/08 01:51:38;;;;;;;4.17;2.80;;;19.20;67.50;;;;;;4996306;28;20921;-51
2023/10/08 01:54:10;;;;;;;4.80;3.83;;;19.20;67.40;;;;;;5012329;28;20460;-51
2023/10/08 01:56:42;;;;;;;4.23;3.33;;;19.20;67.50;;;;;;5000846;28;20441;-52
2023/10/08 01:59:13;;;;;;;4.07;2.90;;;19.20;67.50;;;;;;5003815;28;20476;-51
2023/10/08 02:01:43;;;;;;;4.13;3.57;;;19.20;67.30;;;;;;5018538;28;20454;-51
2023/10/08 02:04:12;;;;;;;5.67;4.10;;;19.20;67.50;;;;;;5000315;28;20468;-51
2023/10/08 02:06:41;;;;;;;3.70;3.00;;;19.20;67.40;;;;;;5007766;28;20453;-52
2023/10/08 02:09:13;;;;;;;3.70;2.80;;;19.20;67.60;;;;;;5006730;28;20465;-51
2023/10/08 02:11:43;;;;;;;3.20;2.53;;;19.20;67.70;;;;;;5007919;28;20813;-51
2023/10/08 02:14:15;;;;;;;4.83;3.67;;;19.20;67.90;;;;;;5006918;28;20468;-51
2023/10/08 02:16:43;;;;;;;3.43;2.43;;;19.20;67.60;;;;;;5016526;28;20443;-50
2023/10/08 02:19:12;;;;;;;5.23;3.20;;;19.20;67.70;;;;;;5008167;28;20989;-51
2023/10/08 02:21:46;;;;;;;4.33;3.13;;;19.20;67.60;;;;;;5006817;28;20480;-50
2023/10/08 02:24:17;;;;;;;4.03;3.10;;;19.20;67.70;;;;;;5005999;28;20457;-51
2023/10/08 02:26:45;;;;;;;4.50;3.17;;;19.20;67.60;;;;;;5010247;28;20803;-50
2023/10/08 02:29:14;;;;;;;3.73;2.90;;;19.20;67.70;;;;;;5002102;28;20499;-50
2023/10/08 02:31:43;;;;;;;4.20;2.90;;;19.20;67.60;;;;;;5007823;28;20433;-50
2023/10/08 02:34:12;;;;;;;4.00;3.10;;;19.20;67.60;;;;;;5007723;28;20853;-50
2023/10/08 02:36:41;;;;;;;4.17;3.30;;;19.20;67.70;;;;;;5005240;28;20886;-50
2023/10/08 02:39:17;;;;;;;5.97;3.37;;;19.20;67.80;;;;;;5005668;28;20472;-51
2023/10/08 02:41:47;;;;;;;3.23;2.73;;;19.20;67.50;;;;;;5003918;28;20476;-51
2023/10/08 02:44:16;;;;;;;3.57;2.90;;;19.20;67.50;;;;;;5016710;28;20907;-51
2023/10/08 02:46:47;;;;;;;4.13;2.80;;;19.20;67.40;;;;;;5002658;28;20464;-51
2023/10/08 02:49:20;;;;;;;2.70;2.43;;;19.20;67.40;;;;;;5006113;28;20878;-50
2023/10/08 02:51:50;;;;;;;3.63;2.70;;;19.20;67.60;;;;;;5004273;28;20938;-52
2023/10/08 02:54:19;;;;;;;3.37;2.57;;;19.20;67.70;;;;;;4994168;28;20470;-51
2023/10/08 02:56:51;;;;;;;4.13;3.33;;;19.10;67.50;;;;;;5001078;28;20499;-50
2023/10/08 02:59:21;;;;;;;4.10;3.03;;;19.20;67.60;;;;;;5011079;28;20845;-51
2023/10/08 03:01:55;;;;;;;3.97;2.37;;;19.20;67.80;;;;;;4997335;28;20456;-49
2023/10/08 03:04:27;;;;;;;4.70;3.10;;;19.20;67.90;;;;;;5010914;28;20480;-52
2023/10/08 03:06:56;;;;;;;3.70;2.57;;;19.20;68.00;;;;;;5006002;28;20889;-51
2023/10/08 03:09:26;;;;;;;4.40;3.50;;;19.10;67.90;;;;;;4998370;28;20985;-52
2023/10/08 03:11:58;;;;;;;5.27;2.80;;;19.20;68.00;;;;;;5011994;28;20448;-51
2023/10/08 03:14:26;;;;;;;4.40;2.50;;;19.20;67.80;;;;;;4993130;28;20866;-51
2023/10/08 03:17:07;;;;;;;5.70;2.87;;;19.20;67.80;;;;;;4996702;28;20765;-50
2023/10/08 03:19:36;;;;;;;3.70;2.87;;;19.20;67.80;;;;;;4993820;28;21043;-51
2023/10/08 03:22:04;;;;;;;4.30;2.90;;;19.20;67.80;;;;;;4991435;28;21099;-50
2023/10/08 03:24:39;;;;;;;3.00;2.50;;;19.10;67.80;;;;;;5006110;28;20523;-51
2023/10/08 03:27:20;;;;;;;3.50;2.50;;;19.20;67.90;;;;;;4997388;28;20453;-50
2023/10/08 03:29:48;;;;;;;3.20;2.43;;;19.20;67.90;;;;;;4994144;28;20569;-50
2023/10/08 03:32:17;;;;;;;3.60;2.83;;;19.20;68.00;;;;;;4991078;28;20448;-51
2023/10/08 03:34:47;;;;;;;3.20;2.63;;;19.20;68.00;;;;;;4994764;28;20477;-51
2023/10/08 03:37:20;;;;;;;3.37;2.43;;;19.20;68.20;;;;;;5001989;28;20476;-51
2023/10/08 03:39:52;;;;;;;3.03;2.10;;;19.20;68.20;;;;;;5003676;28;20453;-51
2023/10/08 03:42:23;;;;;;;3.60;2.90;;;19.10;68.30;;;;;;5006993;28;20591;-52
2023/10/08 03:44:52;;;;;;;3.53;2.40;;;19.10;68.30;;;;;;5003338;28;20580;-50
2023/10/08 03:47:22;;;;;;;3.80;2.70;;;19.10;68.20;;;;;;5005707;28;20437;-51
2023/10/08 03:49:51;;;;;;;3.10;2.47;;;19.10;68.40;;;;;;5004924;28;20512;-51
2023/10/08 03:52:23;;;;;;;2.80;2.30;;;19.10;68.30;;;;;;5004019;28;20441;-50
2023/10/08 03:55:04;;;;;;;3.33;2.73;;;19.10;68.30;;;;;;5005738;28;20499;-50
2023/10/08 03:57:44;;;;;;;4.03;3.10;;;19.10;68.40;;;;;;5003497;28;20433;-51
2023/10/08 04:00:18;;;;;;;3.50;2.40;;;19.10;68.20;;;;;;5002884;28;20483;-49
2023/10/08 04:02:55;;;;;;;3.30;2.77;;;19.10;68.30;;;;;;5005342;28;20968;-51
2023/10/08 04:05:32;;;;;;;4.17;3.10;;;19.10;68.20;;;;;;5005747;28;20902;-50
2023/10/08 04:11:07;;;;;;;3.07;2.30;;;19.10;68.10;;;;;;5002735;28;21280;-50
2023/10/08 04:13:44;;;;;;;3.80;2.60;;;19.10;68.10;;;;;;5002702;28;20496;-50
2023/10/08 04:16:18;;;;;;;3.40;2.67;;;19.10;68.00;;;;;;5002982;28;21024;-50
2023/10/08 04:18:50;;;;;;;4.40;2.60;;;19.10;68.00;;;;;;5004510;28;20511;-52
2023/10/08 04:21:20;;;;;;;4.23;3.10;;;19.10;68.20;;;;;;5001092;28;20442;-52
2023/10/08 04:23:53;;;;;;;3.20;2.70;;;19.10;68.10;;;;;;5005442;28;20481;-49
2023/10/08 04:26:23;;;;;;;3.60;2.83;;;19.10;67.80;;;;;;5006430;28;20432;-51
2023/10/08 04:28:57;;;;;;;4.33;3.37;;;19.10;68.10;;;;;;5004903;28;20921;-51
2023/10/08 04:31:28;;;;;;;3.53;2.50;;;19.10;68.20;;;;;;5003305;28;20700;-50
2023/10/08 04:34:00;;;;;;;4.97;3.00;;;19.10;68.20;;;;;;5008410;28;20456;-51
2023/10/08 04:36:29;;;;;;;3.87;2.90;;;19.10;68.40;;;;;;5002123;28;20453;-52
2023/10/08 04:39:04;;;;;;;4.10;3.37;;;19.10;68.30;;;;;;5004744;28;20463;-51
2023/10/08 04:41:33;;;;;;;3.20;2.60;;;19.10;68.30;;;;;;5005553;28;20428;-51
2023/10/08 04:44:13;;;;;;;3.30;2.73;;;19.10;68.30;;;;;;5003695;28;20484;-52
2023/10/08 04:46:47;;;;;;;3.27;2.60;;;19.10;68.20;;;;;;5003794;28;20444;-51
2023/10/08 04:49:27;;;;;;;2.70;2.20;;;19.10;68.10;;;;;;5002812;28;20514;-50
2023/10/08 04:52:00;;;;;;;4.00;2.97;;;19.10;68.20;;;;;;5003107;28;20520;-50
2023/10/08 04:54:30;;;;;;;3.47;2.80;;;19.10;68.10;;;;;;5008057;28;20475;-51
2023/10/08 04:57:00;;;;;;;2.60;2.10;;;19.10;68.10;;;;;;5009024;28;20476;-51
2023/10/08 04:59:35;;;;;;;4.93;3.23;;;19.10;68.10;;;;;;5005068;28;20489;-52
2023/10/08 05:02:19;;;;;;;3.33;2.67;;;19.10;68.20;;;;;;5008992;28;20428;-49
2023/10/08 05:05:21;;;;;;;3.50;2.60;;;19.10;68.20;;;;;;5008191;28;20468;-52
2023/10/08 05:08:17;;;;;;;3.27;2.93;;;19.10;68.20;;;;;;5002813;28;20530;-50
2023/10/08 05:11:00;;;;;;;2.70;2.30;;;19.10;68.10;;;;;;5006299;28;20460;-51
2023/10/08 05:13:44;;;;;;;3.10;2.33;;;19.10;68.30;;;;;;5008175;28;20823;-51
2023/10/08 05:16:35;;;;;;;3.60;2.93;;;19.10;68.20;;;;;;5009879;28;20551;-51
2023/10/08 05:19:37;;;;;;;3.60;2.73;;;19.10;68.30;;;;;;5007526;28;20896;-50
2023/10/08 05:22:18;;;;;;;3.80;2.50;;;19.10;68.40;;;;;;5005259;28;20444;-50
2023/10/08 05:25:07;;;;;;;3.07;2.47;;;19.10;68.50;;;;;;5005897;28;21029;-52
2023/10/08 05:27:56;;;;;;;3.37;2.70;;;19.10;68.40;;;;;;5008289;28;20491;-51
2023/10/08 05:30:38;;;;;;;3.57;3.03;;;19.10;68.40;;;;;;5007781;28;20485;-50
2023/10/08 05:33:24;;;;;;;3.40;2.50;;;19.00;68.10;;;;;;5008535;28;20429;-51
2023/10/08 05:36:02;;;;;;;3.30;2.70;;;19.10;68.30;;;;;;5004110;28;20560;-52
2023/10/08 05:38:59;;;;;;;3.70;2.87;;;19.10;68.40;;;;;;5007749;28;20437;-52
2023/10/08 05:41:38;;;;;;;2.60;2.40;;;19.10;68.20;;;;;;4993630;28;21073;-52
2023/10/08 05:44:23;;;;;;;3.17;2.53;;;19.10;68.30;;;;;;5006681;28;20469;-52
2023/10/08 05:47:12;;;;;;;4.70;3.23;;;19.10;68.20;;;;;;5005842;28;20461;-51
2023/10/08 05:49:54;;;;;;;3.10;2.77;;;19.10;68.20;;;;;;5011839;28;21000;-50
2023/10/08 05:52:41;;;;;;;3.57;2.60;;;19.10;67.90;;;;;;5007204;28;20441;-50
2023/10/08 05:58:13;;;;;;;3.50;2.60;;;19.10;68.30;;;;;;5008099;28;20441;-50
2023/10/08 06:01:05;;;;;;;4.17;2.70;;;19.10;68.20;;;;;;5006176;28;20488;-52
2023/10/08 06:03:36;;;;;;;4.40;2.93;;;19.10;68.20;;;;;;5006416;28;20475;-51
2023/10/08 06:06:22;;;;;;;3.43;2.80;;;19.00;68.30;;;;;;5008430;28;20627;-50
2023/10/08 06:09:04;;;;;;;3.07;2.63;;;19.10;68.40;;;;;;5004317;28;20421;-52
2023/10/08 06:11:41;;;;;;;4.00;2.80;;;19.00;68.50;;;;;;5008586;28;20441;-50
2023/10/08 06:14:16;;;;;;;3.00;2.67;;;19.10;68.30;;;;;;5005430;28;21830;-50
2023/10/08 06:16:46;;;;;;;4.60;2.50;;;19.10;68.40;;;;;;5012516;28;20866;-51
2023/10/08 06:19:15;;;;;;;3.87;2.60;;;19.10;68.40;;;;;;5008932;28;21042;-51
2023/10/08 06:21:45;;;;;;;3.73;2.70;;;19.00;68.40;;;;;;5004686;28;20449;-51
2023/10/08 06:24:16;;;;;;;3.67;2.20;;;19.00;68.30;;;;;;5006999;28;20891;-50
2023/10/08 06:26:48;;;;;;;2.50;2.10;;;19.10;68.40;;;;;;5006880;28;20433;-50
2023/10/08 06:29:26;;;;;;;3.10;2.43;;;19.00;68.30;;;;;;4994858;28;20461;-51
2023/10/08 06:31:56;;;;;;;3.97;2.50;;;19.00;68.30;;;;;;5010679;28;20440;-51
2023/10/08 06:34:27;;;;;;;3.30;2.50;;;19.10;68.40;;;;;;5008312;28;20868;-51
2023/10/08 06:36:59;;;;;;;3.20;2.53;;;19.00;68.30;;;;;;5004283;28;20441;-52
2023/10/08 06:39:33;;;;;;;3.73;2.60;;;19.10;68.40;;;;;;5013019;28;20471;-51
2023/10/08 06:42:00;;;;;;;3.30;2.37;;;19.00;68.40;;;;;;5005918;28;20440;-51
2023/10/08 06:44:31;;;;;;;2.73;2.27;;;19.00;68.30;;;;;;5002263;28;20473;-50
2023/10/08 06:47:00;;;;;;;2.73;2.43;;;19.00;68.30;;;;;;5004405;28;20497;-50
2023/10/08 06:49:31;;;;;;;3.67;2.57;;;19.00;68.30;;;;;;5006005;28;20471;-49
2023/10/08 06:52:00;;;;;;;3.40;2.83;;;19.00;68.20;;;;;;5009102;28;20468;-50
2023/10/08 06:54:30;;;;;;;3.30;2.67;;;19.00;68.20;;;;;;5006796;28;20478;-50
2023/10/08 06:57:01;;;;;;;3.47;2.57;;;19.00;68.30;;;;;;5010296;28;20426;-52
2023/10/08 06:59:31;;;;;;;3.97;2.43;;;19.00;68.30;;;;;;5005789;28;20476;-50
2023/10/08 07:01:59;;;;;;;4.80;2.80;;;19.00;68.20;;;;;;5012737;28;20429;-50
2023/10/08 07:04:29;;;;;;;5.73;2.30;;;19.00;68.20;;;;;;5006716;28;20511;-50
2023/10/08 07:06:59;;;;;;;3.13;2.57;;;19.00;68.40;;;;;;4993310;28;20965;-51
2023/10/08 07:09:30;;;;;;;2.80;2.50;;;19.00;68.30;;;;;;5008078;28;20461;-50
2023/10/08 07:12:05;;;;;;;3.90;2.90;;;19.00;68.20;;;;;;5007408;28;20448;-51
2023/10/08 07:14:33;;;;;;;3.40;2.83;;;19.00;68.10;;;;;;5003626;28;20467;-51
2023/10/08 07:17:08;;;;;;;5.07;3.30;;;19.00;68.20;;;;;;5000625;28;20449;-50
2023/10/08 07:19:38;;;;;;;3.77;3.10;;;19.00;68.10;;;;;;5004287;28;20477;-52
2023/10/08 07:22:21;;;;;;;3.50;2.40;;;19.00;68.00;;;;;;5005577;28;20958;-51
2023/10/08 07:24:52;;;;;;;4.67;2.60;;;19.00;68.00;;;;;;5009393;28;20566;-51
2023/10/08 07:27:24;;;;;;;5.20;3.57;;;19.00;68.00;;;;;;5008505;28;20436;-52
2023/10/08 07:29:55;;;;;;;3.93;2.73;;;19.00;68.20;;;;;;5003363;28;20516;-50
2023/10/08 07:32:25;;;;;;;3.07;2.20;;;19.00;68.10;;;;;;5010672;28;20508;-49
2023/10/08 07:35:03;;;;;;;5.17;3.50;;;19.00;68.20;;;;;;5006028;28;20490;-50
2023/10/08 07:37:32;;;;;;;3.77;3.10;;;19.00;68.20;;;;;;5005843;28;20973;-52
2023/10/08 07:40:08;;;;;;;3.93;2.53;;;19.00;68.20;;;;;;5007177;28;20493;-50
2023/10/08 07:42:36;;;;;;;5.13;3.50;;;19.00;68.20;;;;;;5006159;28;20436;-51
2023/10/08 07:45:05;;;;;;;3.50;2.20;;;19.00;68.40;;;;;;5005237;28;20904;-51
2023/10/08 07:47:33;;;;;;;3.53;3.10;;;19.00;68.40;;;;;;5003763;28;20428;-50
2023/10/08 07:50:11;;;;;;;4.00;2.80;;;19.00;68.30;;;;;;5006088;28;20464;-47
2023/10/08 07:52:40;;;;;;;4.10;3.30;;;19.00;68.30;;;;;;5003259;28;20447;-52
2023/10/08 07:55:17;;;;;;;5.17;3.23;;;19.00;68.40;;;;;;5005082;28;20226;-51
2023/10/08 07:57:45;;;;;;;4.23;3.27;;;19.00;68.30;;;;;;5005596;28;20460;-52
2023/10/08 08:00:22;;;;;;;3.90;2.43;;;19.00;68.40;;;;;;5003032;28;20488;-53
2023/10/08 08:02:52;;;;;;;3.47;2.50;;;19.00;68.30;;;;;;5005745;28;20500;-50
2023/10/08 08:05:21;;;;;;;2.77;2.43;;;19.00;68.30;;;;;;5005159;28;21266;-53
2023/10/08 08:07:50;;;;;;;3.47;2.50;;;19.00;68.30;;;;;;5006216;28;20535;-51
2023/10/08 08:10:23;;;;;;;4.33;3.20;;;19.00;68.30;;;;;;5005670;28;20479;-51
2023/10/08 08:12:56;;;;;;;4.97;3.33;;;19.00;68.30;;;;;;5005010;28;20436;-51
2023/10/08 08:15:26;;;;;;;4.27;2.93;;;19.00;68.30;;;;;;5002171;28;20480;-52
2023/10/08 08:17:54;;;;;;;4.00;3.00;;;19.00;68.30;;;;;;5008004;28;20456;-52
2023/10/08 08:20:34;;;;;;;5.07;2.83;;;19.00;68.30;;;;;;5006302;28;20543;-51
2023/10/08 08:23:06;;;;;;;4.47;2.97;;;19.00;68.40;;;;;;5002039;28;20519;-50
2023/10/08 08:25:45;;;;;;;3.70;2.63;;;19.00;68.30;;;;;;5007314;28;20514;-52
2023/10/08 08:28:16;;;;;;;5.13;2.80;;;19.00;68.40;;;;;;5007560;28;20435;-51
2023/10/08 08:30:46;;;;;;;3.33;2.63;;;19.00;68.40;;;;;;5007082;28;20505;-51
2023/10/08 08:33:22;;;;;;;3.13;2.10;;;19.00;68.30;;;;;;5009276;28;20421;-52
2023/10/08 08:36:00;;;;;;;2.77;2.57;;;19.10;68.40;;;;;;5007893;28;20495;-50
2023/10/08 08:38:29;;;;;;;3.20;2.70;;;19.10;68.40;;;;;;5008987;28;20951;-51
2023/10/08 08:41:06;;;;;;;3.50;2.70;;;19.10;68.30;;;;;;5011251;28;20887;-51
2023/10/08 08:43:35;;;;;;;4.37;2.60;;;19.10;68.60;;;;;;4994230;28;21040;-51
2023/10/08 08:46:06;;;;;;;3.67;2.60;;;19.10;68.30;;;;;;5005737;28;20470;-51
2023/10/08 08:48:38;;;;;;;4.20;2.70;;;19.10;68.20;;;;;;5006571;28;20433;-49
2023/10/08 08:51:09;;;;;;;4.53;3.00;;;19.10;68.30;;;;;;5005419;28;20449;-51
2023/10/08 08:53:37;;;;;;;3.77;2.57;;;19.10;68.20;;;;;;5006836;28;20492;-51
2023/10/08 08:56:09;;;;;;;4.20;2.87;;;19.10;68.20;;;;;;5008820;28;20481;-50
2023/10/08 08:58:38;;;;;;;4.20;2.90;;;19.10;68.30;;;;;;5005589;28;20442;-51
2023/10/08 09:01:12;;;;;;;3.20;2.90;;;19.10;68.20;;;;;;5008703;28;20857;-51
2023/10/08 09:03:41;;;;;;;3.00;2.17;;;19.10;68.40;;;;;;5008203;28;20459;-52
2023/10/08 09:06:11;;;;;;;3.80;3.00;;;19.10;68.20;;;;;;5005209;28;20516;-52
2023/10/08 09:08:42;;;;;;;3.03;2.30;;;19.10;68.30;;;;;;5012629;28;20804;-52
2023/10/08 09:11:15;;;;;;;3.20;2.70;;;19.10;68.20;;;;;;5011374;28;20497;-52
2023/10/08 09:13:44;;;;;;;3.10;2.50;;;19.10;68.20;;;;;;5011112;28;20989;-50
2023/10/08 09:16:14;;;;;;;2.27;1.90;;;19.10;68.20;;;;;;5005763;28;20475;-51
2023/10/08 09:18:45;;;;;;;3.20;2.40;;;19.10;68.20;;;;;;4995532;28;20440;-52
2023/10/08 09:21:18;;;;;;;3.10;2.10;;;19.10;68.20;;;;;;5005502;28;20468;-52
2023/10/08 09:23:51;;;;;;;4.13;3.00;;;19.10;68.20;;;;;;5010566;28;20472;-52
2023/10/08 09:26:24;;;;;;;3.00;2.70;;;19.10;68.30;;;;;;5009501;28;20560;-51
2023/10/08 09:28:54;;;;;;;4.40;2.30;;;19.10;68.30;;;;;;5009930;28;20646;-50
2023/10/08 09:31:24;;;;;;;3.70;2.40;;;19.10;68.20;;;;;;5007302;28;20437;-52
2023/10/08 09:33:55;;;;;;;3.03;2.70;;;19.10;68.10;;;;;;5010938;28;20454;-50
2023/10/08 09:36:31;;;;;;;2.50;2.10;;;19.10;68.20;;;;;;5004622;28;20489;-51
2023/10/08 09:39:04;;;;;;;5.40;2.90;;;19.10;68.30;;;;;;5009539;28;20441;-51
2023/10/08 09:41:35;;;;;;;3.37;2.23;;;19.10;68.20;;;;;;5011596;28;20540;-51
2023/10/08 09:44:05;;;;;;;3.13;2.60;;;19.10;68.30;;;;;;5007842;28;20502;-51
2023/10/08 09:46:36;;;;;;;3.27;2.73;;;19.10;68.30;;;;;;5007514;28;20508;-52
2023/10/08 09:49:08;;;;;;;3.63;3.00;;;19.10;68.40;;;;;;5007974;28;21909;-51
2023/10/08 09:51:40;;;;;;;3.77;2.83;;;19.10;68.40;;;;;;5004134;28;20898;-51
2023/10/08 09:54:13;;;;;;;6.05;3.40;;;19.20;68.60;;;;;;4990349;28;20446;-51
2023/10/08 09:56:45;;;;;;;4.97;3.37;;;19.30;68.60;;;;;;5011016;28;20706;-50
2023/10/08 09:59:14;;;;;;;5.30;3.27;;;19.20;68.50;;;;;;5007068;28;20552;-50
2023/10/08 10:01:45;;;;;;;5.13;3.53;;;19.20;68.60;;;;;;5007155;28;20441;-52
2023/10/08 10:04:14;;;;;;;5.33;3.20;;;19.20;68.60;;;;;;5008099;28;20453;-51
2023/10/08 10:06:44;;;;;;;4.80;2.90;;;19.20;68.50;;;;;;5007057;28;20472;-51
2023/10/08 10:09:21;;;;;;;3.90;3.13;;;19.20;68.50;;;;;;5007544;28;20456;-51
2023/10/08 10:11:52;;;;;;;5.60;3.50;;;19.20;68.60;;;;;;5009650;28;20441;-51
2023/10/08 10:14:23;;;;;;;7.93;3.00;;;19.20;68.50;;;;;;5005816;28;20500;-51
2023/10/08 10:17:10;;;;;;;3.10;2.50;;;19.20;68.70;;;;;;5008168;28;20448;-50
2023/10/08 10:19:47;;;;;;;3.97;3.03;;;19.10;68.60;;;;;;5010872;28;20464;-51
2023/10/08 10:22:27;;;;;;;3.93;2.70;;;19.20;68.60;;;;;;5003816;28;20459;-50
2023/10/08 10:24:56;;;;;;;3.50;2.33;;;19.20;68.60;;;;;;5008311;28;20476;-51
2023/10/08 10:27:26;;;;;;;3.83;2.30;;;19.20;68.60;;;;;;5006274;28;20429;-50
2023/10/08 10:30:08;;;;;;;3.60;2.67;;;19.20;68.50;;;;;;5006230;28;20504;-50
2023/10/08 10:32:36;;;;;;;4.93;3.20;;;19.20;68.70;;;;;;5010691;28;20536;-52
2023/10/08 10:35:06;;;;;;;3.30;2.50;;;19.20;68.80;;;;;;5006856;28;20538;-50
2023/10/08 10:37:41;;;;;;;4.80;3.17;;;19.10;68.70;;;;;;4992977;28;20452;-51
2023/10/08 10:40:12;;;;;;;4.03;3.30;;;19.20;68.70;;;;;;5011443;28;20663;-51
2023/10/08 10:42:44;;;;;;;5.00;3.80;;;19.20;68.70;;;;;;5012353;28;20455;-51
2023/10/08 10:45:35;;;;;;;4.20;3.10;;;19.20;68.70;;;;;;5009884;28;20860;-52
2023/10/08 10:48:12;;;;;;;3.40;2.30;;;19.10;68.60;;;;;;5005204;28;20496;-51
2023/10/08 10:50:49;;;;;;;3.20;2.30;;;19.20;68.70;;;;;;5005587;28;21012;-52
2023/10/08 10:53:18;;;;;;;3.83;2.73;;;19.20;68.70;;;;;;5007720;28;20482;-51
2023/10/08 10:55:58;;;;;;;3.73;2.70;;;19.20;68.70;;;;;;5009096;28;20468;-51
2023/10/08 10:58:28;;;;;;;3.77;2.90;;;19.20;68.60;;;;;;5009754;28;20695;-50
2023/10/08 11:00:59;;;;;;;3.93;2.90;;;19.20;68.70;;;;;;5004658;28;20473;-52
2023/10/08 11:03:29;;;;;;;3.07;2.77;;;19.20;68.70;;;;;;5010786;28;20898;-51
2023/10/08 11:06:15;;;;;;;3.73;2.17;;;19.20;68.80;;;;;;5001789;28;20479;-51
2023/10/08 11:08:46;;;;;;;2.40;2.17;;;19.20;68.70;;;;;;5009001;28;20483;-51
2023/10/08 11:11:17;;;;;;;3.33;2.63;;;19.20;68.80;;;;;;5010113;28;20464;-52
2023/10/08 11:13:52;;;;;;;4.33;2.83;;;19.20;68.70;;;;;;5008535;28;20520;-50
2023/10/08 11:16:24;;;;;;;3.70;2.63;;;19.20;68.90;;;;;;5009414;28;20486;-52
2023/10/08 11:18:57;;;;;;;3.50;2.57;;;19.20;68.70;;;;;;5006541;28;20943;-52
2023/10/08 11:21:31;;;;;;;3.30;2.50;;;19.20;68.80;;;;;;5003390;28;20445;-51
2023/10/08 11:24:01;;;;;;;3.60;2.33;;;19.20;68.70;;;;;;5009904;28;20514;-52
2023/10/08 11:26:38;;;;;;;2.90;2.23;;;19.20;68.70;;;;;;4991282;28;20468;-52
2023/10/08 11:29:14;;;;;;;3.80;2.40;;;19.20;68.80;;;;;;5003233;28;20464;-52
2023/10/08 11:31:43;;;;;;;4.00;2.60;;;19.20;68.80;;;;;;5002846;28;20455;-50
2023/10/08 11:34:13;;;;;;;3.87;3.20;;;19.20;68.80;;;;;;5006116;28;20457;-52
2023/10/08 11:36:52;;;;;;;5.37;2.70;;;19.20;68.80;;;;;;5003536;28;20439;-52
2023/10/08 11:39:30;;;;;;;5.70;3.37;;;19.20;68.90;;;;;;5012253;28;20468;-50
2023/10/08 11:42:02;;;;;;;5.10;2.80;;;19.30;69.10;;;;;;5010877;28;20946;-51
2023/10/08 11:44:35;;;;;;;4.70;3.90;;;19.30;68.70;;;;;;5003618;28;20492;-53
2023/10/08 11:47:11;;;;;;;8.50;4.20;;;19.30;69.30;;;;;;5005890;28;20463;-52
2023/10/08 11:49:46;;;;;;;12.90;4.20;;;19.30;70.00;;;;;;5006349;28;20479;-52
2023/10/08 11:52:16;;;;;;;6.87;4.27;;;19.40;70.70;;;;;;5004127;28;20966;-51
2023/10/08 11:54:47;;;;;;;7.30;5.03;;;19.40;70.80;;;;;;5003605;28;20465;-51
2023/10/08 11:57:21;;;;;;;9.73;4.80;;;19.30;70.80;;;;;;5011073;28;20432;-51
2023/10/08 11:59:54;;;;;;;10.20;4.40;;;19.30;71.00;;;;;;5005421;28;20480;-51
2023/10/08 12:02:23;;;;;;;8.37;3.50;;;19.30;70.60;;;;;;5004974;28;20449;-50
2023/10/08 12:04:51;;;;;;;5.03;3.73;;;19.30;70.60;;;;;;5005531;28;20481;-51
2023/10/08 12:07:20;;;;;;;5.77;4.13;;;19.30;70.50;;;;;;5001540;28;20576;-53
2023/10/08 12:09:49;;;;;;;6.20;4.10;;;19.30;70.40;;;;;;5008185;28;20839;-52
2023/10/08 12:12:22;;;;;;;5.57;3.87;;;19.30;70.50;;;;;;5006421;28;20437;-53
2023/10/08 12:14:54;;;;;;;4.00;3.60;;;19.20;70.30;;;;;;5004670;28;20493;-51
2023/10/08 12:17:37;;;;;;;4.77;3.60;;;19.20;70.30;;;;;;5004358;28;20454;-51
2023/10/08 12:20:22;;;;;;;5.47;3.73;;;19.20;70.10;;;;;;5005792;28;20503;-51
2023/10/08 12:22:50;;;;;;;5.00;3.10;;;19.30;70.20;;;;;;5002269;28;20460;-51
2023/10/08 12:25:19;;;;;;;3.70;2.93;;;19.30;70.20;;;;;;5004735;28;20460;-51
2023/10/08 12:27:48;;;;;;;4.63;3.63;;;19.30;70.10;;;;;;5007684;28;20475;-50
2023/10/08 12:30:19;;;;;;;4.80;3.23;;;19.30;70.10;;;;;;5003975;28;22945;-51
2023/10/08 12:32:47;;;;;;;7.73;3.30;;;19.30;70.10;;;;;;5007501;28;20512;-52
2023/10/08 12:35:15;;;;;;;5.23;3.87;;;19.30;70.20;;;;;;5004378;28;20468;-50
2023/10/08 12:37:44;;;;;;;5.70;3.80;;;19.30;70.00;;;;;;5002928;28;20451;-51
2023/10/08 12:40:22;;;;;;;5.07;3.23;;;19.30;70.00;;;;;;5008464;28;20469;-51
2023/10/08 12:42:51;;;;;;;4.80;3.40;;;19.30;69.90;;;;;;5006193;28;21623;-51
2023/10/08 12:45:21;;;;;;;7.20;3.90;;;19.30;69.90;;;;;;5001464;28;20485;-50
2023/10/08 12:47:50;;;;;;;6.87;4.07;;;19.30;69.90;;;;;;5005109;28;20705;-50
2023/10/08 12:50:28;;;;;;;4.73;3.93;;;19.30;70.00;;;;;;4990815;28;20547;-51
2023/10/08 12:53:03;;;;;;;3.77;2.80;;;19.30;70.00;;;;;;5003159;28;20906;-52
2023/10/08 12:55:39;;;;;;;5.57;4.03;;;19.30;69.90;;;;;;5003188;28;20468;-51
2023/10/08 12:58:10;;;;;;;3.67;2.87;;;19.30;70.00;;;;;;5002554;28;20531;-52
2023/10/08 13:00:41;;;;;;;4.73;3.00;;;19.30;70.00;;;;;;5005870;28;20509;-52
2023/10/08 13:03:15;;;;;;;4.73;3.20;;;19.30;69.80;;;;;;5007206;28;20433;-50
2023/10/08 13:05:45;;;;;;;3.73;2.80;;;19.30;69.70;;;;;;5007899;28;20581;-50
2023/10/08 13:08:13;;;;;;;4.40;3.50;;;19.40;69.90;;;;;;5002291;28;20464;-52
2023/10/08 13:10:43;;;;;;;5.43;3.80;;;19.40;70.00;;;;;;5004413;28;20460;-52
2023/10/08 13:13:12;;;;;;;3.47;2.53;;;19.40;70.00;;;;;;5006944;28;20429;-50
2023/10/08 13:15:42;;;;;;;4.87;3.37;;;19.40;70.00;;;;;;5010903;28;20825;-52
2023/10/08 13:18:11;;;;;;;4.87;3.70;;;19.40;70.00;;;;;;4987332;28;20449;-52
2023/10/08 13:20:41;;;;;;;4.93;3.20;;;19.40;69.90;;;;;;5009346;28;20465;-51
2023/10/08 13:23:10;;;;;;;4.37;3.30;;;19.40;70.00;;;;;;5005370;28;20448;-52
2023/10/08 13:25:39;;;;;;;4.00;3.57;;;19.40;70.00;;;;;;5009386;28;20502;-52
2023/10/08 13:28:09;;;;;;;6.60;3.20;;;19.40;69.90;;;;;;5008576;28;21071;-52